Strona główna
METAR-TAF:

METAR-TAF

Lotnisko :

Baza lotnicza

Solenzara, Francja

Szerokość geograficzna: 41-55N, Długość geograficzna: 009-24E, wysokość: 8 m

Aktualna obserwacja pogody

Raport powstał 41 minut temu, godzina 10:30 UTC
Wiatr 10 kt od południowo-południowy wschód
Temperatura 27°C
Wilgotność 62%
Ciśnienie 1012 hPa
Widzialność 10 km lub więcej
Brak chmur poniżej 1500 m i brak chmur cumulonimbus

METAR: LFKS 181030Z AUTO 15010KT CAVOK 27/19 Q1012

czas: 13:11 (11:11 UTC)

Prognoza

Raport powstał 3 godziny i 11 minut temu, godzina 08:00 UTC
Prognoza ważna od 18 godzina 09 UTC do 19 godzina 09 UTC
Wiatr 12 kt od wschodnio-południowy wschód
Widzialność 10 km lub więcej
Brak chmur poniżej 1500 m i brak chmur cumulonimbus
Stopniowe zmiany
od 18 godzina 17 UTC do 18 godzina 19 UTC
Wiatr 5 kt od zachód

TAF: LFKS 180800Z 1809/1909 12012KT CAVOK BECMG 1817/1819 27005KT

Obserwacja i prognoza pogody dla ponad 4000 lotnisk (raport METAR i TAF).

Dostępne stacje oznaczono żółtymi i czerwonymi punktami na mapie.

Najedź kursorem aby zobaczyć nazwę stacji.

Kliknij aby zobaczyć obserwacje i prognozy pogody.

Aby zmienić mapę: kliknij na zielony przycisk z czarnym krzyżykiem, aby powiększyć; na zielony przycisk z myślnikiem, aby pomniejszyć; na zielone strzałki, aby przejść do map sąsiednich.


METAR-TAF: